Time;durP1;ratioP1;P1;durP2;ratioP2;P2;SDS_P1;SDS_P2;PMS_P1;PMS_P2;Temp;Humidity;BMP_temperature;BMP_pressure;BME280_temperature;BME280_humidity;BME280_pressure;Samples;Min_cycle;Max_cycle;Signal;HPM_P1;HPM_P2
2023/02/16 00:00:32;;;;;;;19.20;12.27;;;6.30;99.90;;;;;;5025784;28;20513;-85
2023/02/16 00:02:59;;;;;;;23.37;15.67;;;6.30;99.90;;;;;;5023935;28;20489;-87
2023/02/16 00:05:28;;;;;;;25.27;16.87;;;6.30;99.90;;;;;;5020310;28;20624;-86
2023/02/16 00:07:56;;;;;;;24.10;14.93;;;6.30;99.90;;;;;;5024569;28;20524;-86
2023/02/16 00:10:24;;;;;;;21.83;14.07;;;6.30;99.90;;;;;;5016788;28;20545;-85
2023/02/16 00:15:37;;;;;;;26.03;15.77;;;6.20;99.90;;;;;;5003332;28;20481;-86
2023/02/16 00:18:14;;;;;;;24.23;15.40;;;6.20;99.90;;;;;;5007393;28;20980;-85
2023/02/16 00:20:41;;;;;;;28.10;13.70;;;6.20;99.90;;;;;;5007762;28;20466;-85
2023/02/16 00:23:08;;;;;;;20.93;14.03;;;6.10;99.90;;;;;;5022862;28;20499;-86
2023/02/16 00:25:36;;;;;;;24.77;15.43;;;6.00;99.90;;;;;;5023156;28;20919;-85
2023/02/16 00:28:05;;;;;;;24.57;13.90;;;6.00;99.90;;;;;;5027427;28;20456;-84
2023/02/16 00:30:50;;;;;;;27.87;15.67;;;6.00;99.90;;;;;;5043881;28;20446;-84
2023/02/16 00:33:21;;;;;;;21.37;14.80;;;6.00;99.90;;;;;;5042170;28;20476;-85
2023/02/16 00:35:48;;;;;;;19.67;13.50;;;5.90;99.90;;;;;;5024865;28;20540;-84
2023/02/16 00:38:15;;;;;;;23.70;15.27;;;5.80;99.90;;;;;;5028652;28;20477;-86
2023/02/16 00:40:42;;;;;;;22.37;14.17;;;5.70;99.90;;;;;;5033469;28;20489;-84
2023/02/16 00:43:19;;;;;;;27.20;15.80;;;5.70;99.90;;;;;;5023347;28;20551;-85
2023/02/16 00:45:46;;;;;;;21.20;13.37;;;5.50;1.00;;;;;;5022877;28;20487;-84
2023/02/16 00:48:13;;;;;;;31.13;17.00;;;5.50;1.00;;;;;;5021151;28;20475;-87
2023/02/16 00:50:41;;;;;;;31.00;15.67;;;5.50;1.00;;;;;;5021691;28;20453;-85
2023/02/16 00:53:09;;;;;;;25.90;16.17;;;5.50;1.00;;;;;;5020634;28;20513;-84
2023/02/16 00:55:38;;;;;;;27.80;15.13;;;5.50;1.00;;;;;;5019031;28;20497;-84
2023/02/16 00:58:11;;;;;;;23.70;14.10;;;5.50;1.00;;;;;;5019080;28;20843;-85
2023/02/16 01:00:39;;;;;;;20.57;14.27;;;5.50;1.00;;;;;;5011358;28;21005;-85
2023/02/16 01:03:10;;;;;;;27.70;16.60;;;5.50;1.00;;;;;;5014490;28;20493;-84
2023/02/16 01:05:36;;;;;;;28.17;17.90;;;5.40;1.00;;;;;;5027064;28;20553;-86
2023/02/16 01:11:10;;;;;;;25.83;15.80;;;5.60;1.00;;;;;;4998361;28;20500;-84
2023/02/16 01:13:43;;;;;;;20.03;13.43;;;5.50;1.00;;;;;;4998773;28;20515;-86
2023/02/16 01:16:14;;;;;;;21.13;14.63;;;5.50;1.00;;;;;;4998567;28;20481;-87
2023/02/16 01:18:40;;;;;;;24.13;16.00;;;5.40;1.00;;;;;;5008248;28;20468;-84
2023/02/16 01:21:07;;;;;;;27.87;16.20;;;5.40;1.00;;;;;;5011142;28;20456;-84
2023/02/16 01:23:37;;;;;;;21.70;14.83;;;5.40;1.00;;;;;;5017877;28;20490;-84
2023/02/16 01:26:04;;;;;;;24.57;15.27;;;5.30;1.00;;;;;;5028321;28;20479;-85
2023/02/16 01:28:35;;;;;;;25.47;14.60;;;5.30;1.00;;;;;;5036612;28;20481;-83
2023/02/16 01:31:02;;;;;;;27.40;16.60;;;5.10;1.00;;;;;;5017147;28;20931;-86
2023/02/16 01:33:29;;;;;;;22.57;14.17;;;5.00;1.00;;;;;;5029430;28;20477;-87
2023/02/16 01:35:57;;;;;;;26.77;15.43;;;5.10;1.00;;;;;;5027054;28;20495;-85
2023/02/16 01:38:26;;;;;;;30.50;17.37;;;5.10;1.00;;;;;;5020596;28;20832;-86
2023/02/16 01:41:06;;;;;;;31.07;16.23;;;5.00;1.00;;;;;;5027150;28;20494;-85
2023/02/16 01:43:42;;;;;;;21.23;13.47;;;5.00;1.00;;;;;;5025523;28;20549;-83
2023/02/16 01:46:16;;;;;;;23.77;14.20;;;5.10;1.00;;;;;;5024752;28;20468;-84
2023/02/16 01:48:43;;;;;;;25.13;14.20;;;5.00;1.00;;;;;;5021496;28;20473;-83
2023/02/16 01:51:20;;;;;;;22.87;15.47;;;5.00;1.00;;;;;;5023542;28;20454;-83
2023/02/16 01:53:51;;;;;;;20.47;14.27;;;5.00;1.00;;;;;;5023590;28;20478;-85
2023/02/16 01:56:32;;;;;;;27.57;16.17;;;5.00;1.00;;;;;;5024025;28;20592;-88
2023/02/16 01:59:11;;;;;;;23.23;13.83;;;4.90;1.00;;;;;;5034995;28;20485;-84
2023/02/16 02:01:43;;;;;;;27.53;15.23;;;4.90;1.00;;;;;;5042391;28;20891;-87
2023/02/16 02:07:05;;;;;;;24.43;14.87;;;4.90;1.00;;;;;;5046142;28;20422;-85
2023/02/16 02:09:39;;;;;;;30.97;16.07;;;4.90;1.00;;;;;;5036357;28;20582;-85
2023/02/16 02:12:15;;;;;;;20.87;14.43;;;4.90;1.00;;;;;;5023821;28;20529;-87
2023/02/16 02:14:43;;;;;;;23.97;15.67;;;4.90;1.00;;;;;;5024230;28;20490;-86
2023/02/16 02:17:12;;;;;;;25.97;16.10;;;5.00;1.00;;;;;;5024407;28;20938;-86
2023/02/16 02:19:49;;;;;;;27.20;16.73;;;5.00;1.00;;;;;;5022650;28;20476;-86
2023/02/16 02:25:58;;;;;;;23.53;14.40;;;5.00;1.00;;;;;;5022555;28;20475;-85
2023/02/16 02:28:31;;;;;;;23.07;12.90;;;4.90;1.00;;;;;;5017798;28;20509;-86
2023/02/16 02:31:06;;;;;;;24.00;15.57;;;4.90;1.00;;;;;;5018503;28;20427;-86
2023/02/16 02:33:46;;;;;;;22.90;15.07;;;4.90;1.00;;;;;;5009855;28;20836;-86
2023/02/16 02:36:25;;;;;;;23.83;16.13;;;4.90;1.00;;;;;;5022661;28;20483;-85
2023/02/16 02:39:01;;;;;;;21.37;13.53;;;4.80;1.00;;;;;;5022105;28;20494;-86
2023/02/16 02:44:20;;;;;;;23.30;15.27;;;4.80;1.00;;;;;;5015088;28;20480;-85
2023/02/16 02:46:47;;;;;;;26.43;16.80;;;5.00;1.00;;;;;;5010812;28;20476;-84
2023/02/16 02:49:14;;;;;;;25.87;15.17;;;5.10;1.00;;;;;;5024456;28;20453;-84
2023/02/16 02:51:41;;;;;;;26.07;16.40;;;5.30;1.00;;;;;;5025656;28;20559;-84
2023/02/16 03:02:55;;;;;;;21.83;13.60;;;5.40;99.90;;;;;;4956613;28;20470;-84
2023/02/16 03:05:23;;;;;;;20.70;13.80;;;5.30;99.90;;;;;;5004344;28;20551;-86
2023/02/16 03:07:56;;;;;;;27.43;15.10;;;5.20;99.90;;;;;;5032007;28;20955;-85
2023/02/16 03:13:17;;;;;;;28.10;15.90;;;5.10;99.90;;;;;;5012270;28;20450;-86
2023/02/16 03:15:47;;;;;;;19.80;13.37;;;5.00;99.90;;;;;;5035173;28;20519;-86
2023/02/16 03:29:21;;;;;;;23.10;14.53;;;5.20;99.90;;;;;;5027006;28;20422;-83
2023/02/16 03:31:50;;;;;;;25.00;16.07;;;5.20;99.90;;;;;;5017367;28;20432;-84
2023/02/16 03:34:18;;;;;;;26.77;17.80;;;5.20;99.90;;;;;;5017100;28;20433;-85
2023/02/16 03:36:48;;;;;;;25.60;13.67;;;5.20;99.90;;;;;;5021827;28;20438;-84
2023/02/16 03:39:16;;;;;;;25.50;16.77;;;5.20;99.90;;;;;;5017825;28;20423;-85
2023/02/16 03:41:46;;;;;;;20.67;13.67;;;5.20;99.90;;;;;;5017039;28;20477;-84
2023/02/16 03:44:13;;;;;;;22.80;15.17;;;5.20;99.90;;;;;;5014915;28;20557;-86
2023/02/16 03:46:40;;;;;;;22.90;14.23;;;5.20;99.90;;;;;;5021255;28;20505;-85
2023/02/16 03:49:08;;;;;;;27.17;15.53;;;5.20;99.90;;;;;;5010695;28;20437;-87
2023/02/16 03:51:35;;;;;;;23.87;15.80;;;5.20;99.90;;;;;;5018277;28;20430;-87
2023/02/16 03:54:02;;;;;;;25.20;15.50;;;5.20;99.90;;;;;;5017773;28;20453;-86
2023/02/16 03:56:29;;;;;;;26.80;16.00;;;5.30;99.90;;;;;;5013077;28;20525;-87
2023/02/16 03:58:56;;;;;;;23.67;15.30;;;5.30;99.90;;;;;;5017447;28;20439;-84
2023/02/16 04:01:23;;;;;;;26.13;14.30;;;5.30;99.90;;;;;;5017516;28;20495;-86
2023/02/16 04:03:50;;;;;;;23.73;13.77;;;5.30;99.90;;;;;;5017458;28;20573;-87
2023/02/16 04:06:18;;;;;;;21.50;15.00;;;5.30;99.90;;;;;;5017201;28;20476;-87
2023/02/16 04:08:45;;;;;;;27.27;15.87;;;5.30;99.90;;;;;;5017550;28;20551;-86
2023/02/16 04:13:56;;;;;;;25.57;15.43;;;5.30;99.90;;;;;;5017688;28;20406;-85
2023/02/16 04:16:23;;;;;;;27.43;15.50;;;5.30;99.90;;;;;;5013833;28;20520;-85
2023/02/16 04:18:50;;;;;;;24.50;15.20;;;;;;;;;;5008906;28;20433;-85
2023/02/16 04:21:18;;;;;;;24.17;13.83;;;5.30;99.90;;;;;;5015503;28;20464;-86
2023/02/16 04:23:45;;;;;;;19.47;13.80;;;5.30;99.90;;;;;;5014976;28;20466;-87
2023/02/16 04:26:12;;;;;;;24.47;15.07;;;5.20;99.90;;;;;;5014457;28;20861;-86
2023/02/16 04:28:39;;;;;;;22.00;14.77;;;5.20;99.90;;;;;;5009987;28;20548;-87
2023/02/16 04:31:05;;;;;;;27.27;16.97;;;5.20;99.90;;;;;;5015631;28;20507;-88
2023/02/16 04:33:32;;;;;;;24.83;14.80;;;5.10;99.90;;;;;;5012533;28;20530;-87
2023/02/16 04:35:59;;;;;;;27.90;16.00;;;5.10;99.90;;;;;;5001687;28;20511;-86
2023/02/16 04:38:27;;;;;;;20.07;14.00;;;5.10;99.90;;;;;;5003237;28;20452;-88
2023/02/16 04:40:54;;;;;;;20.60;14.57;;;5.10;99.90;;;;;;5023172;28;20472;-87
2023/02/16 04:43:21;;;;;;;25.50;15.60;;;5.10;99.90;;;;;;5018871;28;20443;-86
2023/02/16 04:45:48;;;;;;;22.70;15.30;;;5.00;99.90;;;;;;5001428;28;20813;-86
2023/02/16 04:48:14;;;;;;;24.30;15.47;;;5.00;99.90;;;;;;5018120;28;20551;-86
2023/02/16 04:50:42;;;;;;;22.70;14.33;;;5.00;99.90;;;;;;5019569;28;20450;-85
2023/02/16 04:53:08;;;;;;;23.90;14.40;;;5.00;99.90;;;;;;5025538;28;20461;-85
2023/02/16 04:55:37;;;;;;;21.77;13.63;;;5.00;99.90;;;;;;5005401;28;20478;-85
2023/02/16 04:58:03;;;;;;;20.13;14.73;;;4.90;99.90;;;;;;5015399;28;20451;-85
2023/02/16 05:00:30;;;;;;;26.50;15.27;;;4.90;99.90;;;;;;5012248;28;20456;-87
2023/02/16 05:02:57;;;;;;;23.83;14.40;;;4.90;99.90;;;;;;5029117;28;20487;-86
2023/02/16 05:05:24;;;;;;;24.63;14.37;;;4.90;99.90;;;;;;5026646;28;20556;-86
2023/02/16 05:07:51;;;;;;;26.03;15.63;;;4.80;99.90;;;;;;5026117;28;20435;-86
2023/02/16 05:10:18;;;;;;;24.57;15.73;;;4.70;1.00;;;;;;5023157;28;20462;-86
2023/02/16 05:15:30;;;;;;;20.10;14.80;;;4.90;99.90;;;;;;5008877;28;20455;-86
2023/02/16 05:17:57;;;;;;;23.00;14.80;;;4.90;99.90;;;;;;5005247;28;20460;-85
2023/02/16 05:21:28;;;;;;;24.73;15.20;;;4.90;99.90;;;;;;5010886;28;20533;-86
2023/02/16 05:23:11;;;;;;;25.40;16.00;;;5.00;99.90;;;;;;5011372;28;20442;-86
2023/02/16 05:25:37;;;;;;;23.47;15.70;;;4.90;99.90;;;;;;5020374;28;20565;-86
2023/02/16 05:28:06;;;;;;;24.30;15.23;;;4.90;99.90;;;;;;5023214;28;20462;-85
2023/02/16 05:30:33;;;;;;;23.80;14.10;;;4.90;99.90;;;;;;5005589;28;20458;-85
2023/02/16 05:32:59;;;;;;;22.63;15.37;;;4.90;99.90;;;;;;5017163;28;20479;-86
2023/02/16 05:35:26;;;;;;;26.20;15.97;;;4.90;99.90;;;;;;5017485;28;20526;-85
2023/02/16 05:37:53;;;;;;;23.70;14.77;;;5.00;99.90;;;;;;5018861;28;20564;-85
2023/02/16 05:40:20;;;;;;;28.40;16.60;;;5.20;99.90;;;;;;5035832;28;20520;-85
2023/02/16 05:42:47;;;;;;;25.30;15.90;;;5.30;99.90;;;;;;5037784;28;20473;-86
2023/02/16 05:45:15;;;;;;;25.60;15.27;;;5.40;80.10;;;;;;5022232;28;20550;-84
2023/02/16 05:47:42;;;;;;;30.10;16.00;;;5.40;51.60;;;;;;5019697;28;20487;-85
2023/02/16 05:50:10;;;;;;;24.63;15.90;;;5.40;61.00;;;;;;5019798;28;20524;-85
2023/02/16 05:52:36;;;;;;;25.27;15.60;;;5.40;46.30;;;;;;5021111;28;20460;-86
2023/02/16 05:55:04;;;;;;;23.53;17.23;;;5.40;1.00;;;;;;5022666;28;20459;-85
2023/02/16 05:57:33;;;;;;;26.47;16.57;;;5.30;94.00;;;;;;5017092;28;20833;-84
2023/02/16 06:00:00;;;;;;;28.30;17.17;;;5.30;99.90;;;;;;5049379;22;20920;-80
2023/02/16 06:02:28;;;;;;;23.93;15.47;;;5.10;99.90;;;;;;5037917;28;20510;-81
2023/02/16 06:04:55;;;;;;;22.93;14.73;;;5.10;99.90;;;;;;5037423;28;20545;-81
2023/02/16 06:07:22;;;;;;;27.67;15.63;;;5.10;99.90;;;;;;5034025;28;20529;-82
2023/02/16 06:09:49;;;;;;;26.33;14.20;;;5.00;99.90;;;;;;5036723;28;20457;-83
2023/02/16 06:12:15;;;;;;;23.73;14.60;;;5.10;99.90;;;;;;5039365;28;20455;-84
2023/02/16 06:14:42;;;;;;;25.03;15.20;;;5.10;99.90;;;;;;5037990;28;20451;-84
2023/02/16 06:17:09;;;;;;;25.70;15.50;;;5.20;99.90;;;;;;5035086;28;20481;-83
2023/02/16 06:19:37;;;;;;;25.07;16.33;;;5.20;99.90;;;;;;5033258;28;20523;-82
2023/02/16 06:22:04;;;;;;;23.37;16.20;;;5.30;99.90;;;;;;5035099;28;20464;-84
2023/02/16 06:24:31;;;;;;;28.63;15.80;;;5.30;99.90;;;;;;5035583;28;20569;-82
2023/02/16 06:26:58;;;;;;;21.73;14.00;;;5.40;99.90;;;;;;5034524;28;20461;-83
2023/02/16 06:29:25;;;;;;;29.10;16.63;;;5.50;99.90;;;;;;5035066;28;20451;-83
2023/02/16 06:31:52;;;;;;;29.20;15.23;;;5.50;99.90;;;;;;5035088;28;20485;-83
2023/02/16 06:34:19;;;;;;;25.07;16.03;;;5.50;99.90;;;;;;5038467;28;20424;-82
2023/02/16 06:36:47;;;;;;;24.93;15.40;;;5.60;99.90;;;;;;5037567;28;20481;-83
2023/02/16 06:39:14;;;;;;;26.53;15.67;;;5.60;99.90;;;;;;5037035;28;20481;-83
2023/02/16 06:41:41;;;;;;;22.27;14.83;;;5.60;99.90;;;;;;5037115;28;20492;-84
2023/02/16 06:44:12;;;;;;;23.80;15.13;;;5.60;99.90;;;;;;5037202;28;20528;-83
2023/02/16 06:46:39;;;;;;;25.00;15.90;;;5.70;99.90;;;;;;5037350;28;20491;-81
2023/02/16 06:49:06;;;;;;;22.80;14.50;;;5.70;99.90;;;;;;5036625;28;20474;-82
2023/02/16 06:51:33;;;;;;;24.23;14.00;;;5.80;99.90;;;;;;5035723;28;20455;-83
2023/02/16 06:54:01;;;;;;;23.10;14.57;;;5.80;99.90;;;;;;5036155;28;20555;-82
2023/02/16 06:56:28;;;;;;;26.23;15.27;;;5.80;99.90;;;;;;5042821;28;20494;-85
2023/02/16 06:58:54;;;;;;;24.17;15.20;;;5.90;99.90;;;;;;5046256;28;20546;-82
2023/02/16 07:01:24;;;;;;;20.97;15.67;;;6.00;99.90;;;;;;5047398;28;20498;-83
2023/02/16 07:03:52;;;;;;;23.10;15.30;;;6.10;99.90;;;;;;5045870;28;20447;-84
2023/02/16 07:06:20;;;;;;;25.17;16.33;;;6.20;99.90;;;;;;5038908;28;20487;-83
2023/02/16 07:08:48;;;;;;;23.70;13.57;;;6.20;49.70;;;;;;5032153;28;20841;-82
2023/02/16 07:11:17;;;;;;;22.37;15.90;;;6.30;48.60;;;;;;5034458;28;20456;-83
2023/02/16 07:13:43;;;;;;;21.87;15.87;;;6.30;14.70;;;;;;5034114;28;20466;-83
2023/02/16 07:16:11;;;;;;;19.90;13.93;;;6.40;1.00;;;;;;5034327;28;20534;-84
2023/02/16 07:18:38;;;;;;;24.73;17.10;;;6.50;1.00;;;;;;5032155;28;20449;-84
2023/02/16 07:21:06;;;;;;;22.80;15.60;;;6.60;1.00;;;;;;5033333;28;20838;-83
2023/02/16 07:23:33;;;;;;;28.23;17.07;;;6.60;1.00;;;;;;5033867;28;20921;-84
2023/02/16 07:26:02;;;;;;;23.97;15.40;;;6.70;1.00;;;;;;5033615;28;20488;-83
2023/02/16 07:28:30;;;;;;;30.53;16.80;;;6.80;1.00;;;;;;5034613;28;20463;-85
2023/02/16 07:30:57;;;;;;;23.10;16.23;;;6.80;99.90;;;;;;5044902;28;20520;-83
2023/02/16 07:33:24;;;;;;;23.90;15.70;;;6.90;1.00;;;;;;5049240;28;20846;-82
2023/02/16 07:35:50;;;;;;;23.87;15.10;;;7.00;99.90;;;;;;5050332;28;20519;-82
2023/02/16 07:38:17;;;;;;;21.93;14.37;;;7.00;1.00;;;;;;5052095;28;20455;-83
2023/02/16 07:40:44;;;;;;;27.93;15.83;;;7.10;1.00;;;;;;5044942;28;20480;-83
2023/02/16 07:43:11;;;;;;;25.13;15.07;;;7.20;1.00;;;;;;5041206;28;20524;-83
2023/02/16 07:45:41;;;;;;;25.00;16.60;;;7.30;1.00;;;;;;5034900;28;20494;-83
2023/02/16 07:48:07;;;;;;;23.77;15.43;;;7.40;99.90;;;;;;5028888;28;20520;-81
2023/02/16 07:50:35;;;;;;;25.17;15.93;;;7.40;99.90;;;;;;5032399;28;20594;-82
2023/02/16 07:53:03;;;;;;;22.13;13.93;;;7.50;1.00;;;;;;5039665;28;20540;-83
2023/02/16 07:55:30;;;;;;;22.17;15.67;;;7.40;99.90;;;;;;5037851;28;20521;-82
2023/02/16 07:57:57;;;;;;;22.80;14.40;;;7.50;1.00;;;;;;5042753;28;20485;-84
2023/02/16 08:00:24;;;;;;;21.80;14.20;;;7.60;99.90;;;;;;5042276;28;20579;-83
2023/02/16 08:02:52;;;;;;;19.73;14.50;;;7.50;1.00;;;;;;5042044;28;20527;-82
2023/02/16 08:05:19;;;;;;;21.00;13.50;;;7.60;99.90;;;;;;5039563;28;20503;-82
2023/02/16 08:07:46;;;;;;;23.97;15.20;;;7.80;1.00;;;;;;5039125;28;20453;-81
2023/02/16 08:10:13;;;;;;;25.47;15.33;;;7.80;99.90;;;;;;5039302;28;20500;-83
2023/02/16 08:12:40;;;;;;;21.83;14.30;;;7.90;1.00;;;;;;5038674;28;20477;-81
2023/02/16 08:15:08;;;;;;;22.27;15.43;;;8.00;1.00;;;;;;5040157;28;20535;-81
2023/02/16 08:17:35;;;;;;;22.53;15.50;;;8.10;99.90;;;;;;5038207;28;20464;-83
2023/02/16 08:20:09;;;;;;;21.83;13.87;;;8.20;1.00;;;;;;5031240;28;20488;-83
2023/02/16 08:22:35;;;;;;;24.50;14.10;;;8.50;99.90;;;;;;5035597;28;20465;-84
2023/02/16 08:25:04;;;;;;;21.33;14.07;;;8.70;99.90;;;;;;5036461;28;20488;-84
2023/02/16 08:27:30;;;;;;;21.43;15.23;;;8.70;1.00;;;;;;5035414;28;20556;-80
2023/02/16 08:29:57;;;;;;;21.80;14.80;;;8.70;1.00;;;;;;5034197;28;20563;-85
2023/02/16 08:32:25;;;;;;;24.53;14.40;;;8.80;1.00;;;;;;5038908;28;20509;-83
2023/02/16 08:34:52;;;;;;;21.30;14.80;;;8.90;1.00;;;;;;5040070;28;20538;-83
2023/02/16 08:37:20;;;;;;;21.03;14.43;;;9.10;1.00;;;;;;5036378;28;20457;-82
2023/02/16 08:39:47;;;;;;;22.73;15.43;;;9.30;1.00;;;;;;5036919;28;20490;-81
2023/02/16 08:42:14;;;;;;;24.10;15.47;;;9.30;99.90;;;;;;5042940;28;20465;-83
2023/02/16 08:44:43;;;;;;;25.13;15.50;;;9.50;99.90;;;;;;5044767;28;20526;-82
2023/02/16 08:47:10;;;;;;;21.80;14.87;;;9.30;99.90;;;;;;5047153;28;20487;-82
2023/02/16 08:49:44;;;;;;;21.23;14.60;;;9.40;99.90;;;;;;5024382;28;20504;-83
2023/02/16 08:52:12;;;;;;;21.73;14.50;;;9.20;99.90;;;;;;5043093;28;20482;-83
2023/02/16 08:54:41;;;;;;;21.87;13.63;;;9.30;99.90;;;;;;5037743;28;20476;-84
2023/02/16 08:57:26;;;;;;;20.20;14.77;;;9.50;99.90;;;;;;5034863;28;20514;-82
2023/02/16 09:02:37;;;;;;;23.67;13.80;;;9.70;99.90;;;;;;5036050;28;20534;-82
2023/02/16 09:05:04;;;;;;;22.83;14.60;;;10.10;99.90;;;;;;5045506;28;20569;-82
2023/02/16 09:07:33;;;;;;;22.13;15.20;;;10.30;59.40;;;;;;5046609;28;20455;-83
2023/02/16 09:10:03;;;;;;;27.20;15.83;;;10.20;8.90;;;;;;5040872;28;20490;-82
2023/02/16 09:12:31;;;;;;;20.80;13.90;;;10.20;1.00;;;;;;5029721;28;20472;-83
2023/02/16 09:14:59;;;;;;;21.93;13.80;;;10.50;1.00;;;;;;5040275;28;20456;-84
2023/02/16 09:17:26;;;;;;;21.30;14.73;;;10.60;1.00;;;;;;5037611;28;20970;-84
2023/02/16 09:19:53;;;;;;;22.97;14.67;;;10.50;1.00;;;;;;5035122;28;20488;-84
2023/02/16 09:22:21;;;;;;;18.80;12.67;;;10.40;1.00;;;;;;5032293;28;20487;-83
2023/02/16 09:24:48;;;;;;;18.10;13.07;;;10.50;1.00;;;;;;5035404;28;20491;-84
2023/02/16 09:27:16;;;;;;;20.47;13.27;;;10.60;1.00;;;;;;5039175;28;20479;-82
2023/02/16 09:29:44;;;;;;;19.50;13.57;;;10.80;1.00;;;;;;5030552;28;20485;-83
2023/02/16 09:32:16;;;;;;;23.77;14.40;;;11.40;1.00;;;;;;5036166;28;20497;-83
2023/02/16 09:34:43;;;;;;;23.23;14.07;;;11.60;1.00;;;;;;5038301;28;20535;-82
2023/02/16 09:37:10;;;;;;;18.03;12.10;;;11.40;1.00;;;;;;5037601;28;20558;-84
2023/02/16 09:39:37;;;;;;;20.03;12.97;;;11.50;1.00;;;;;;5038003;28;20469;-85
2023/02/16 09:42:24;;;;;;;18.50;12.07;;;11.50;1.00;;;;;;5022982;28;20477;-84
2023/02/16 09:45:03;;;;;;;19.63;12.63;;;11.40;1.00;;;;;;5048274;28;20451;-82
2023/02/16 09:47:33;;;;;;;19.20;12.20;;;11.30;1.00;;;;;;5053240;28;20463;-82
2023/02/16 09:50:05;;;;;;;17.90;13.00;;;11.10;1.00;;;;;;5041503;28;20449;-83
2023/02/16 09:52:43;;;;;;;19.67;12.93;;;11.20;1.00;;;;;;5038725;28;20481;-83
2023/02/16 09:55:21;;;;;;;15.70;12.50;;;11.60;1.00;;;;;;5036712;28;20451;-83
2023/02/16 09:58:06;;;;;;;18.43;12.37;;;11.70;1.00;;;;;;5038323;28;20457;-85
2023/02/16 10:00:48;;;;;;;20.23;13.27;;;11.40;1.00;;;;;;5041032;28;20483;-83
2023/02/16 10:03:32;;;;;;;17.90;12.17;;;11.20;1.00;;;;;;5040168;28;20441;-82
2023/02/16 10:06:06;;;;;;;18.83;12.60;;;11.10;1.00;;;;;;5036948;28;20476;-82
2023/02/16 10:08:38;;;;;;;20.37;13.43;;;10.90;1.00;;;;;;5039673;28;20453;-82
2023/02/16 10:11:36;;;;;;;18.37;12.27;;;11.00;1.00;;;;;;5038590;28;21016;-82
2023/02/16 10:14:02;;;;;;;17.60;11.73;;;11.00;1.00;;;;;;5041937;28;20425;-81
2023/02/16 10:16:36;;;;;;;20.03;13.20;;;10.90;1.00;;;;;;5051788;28;20443;-81
2023/02/16 10:19:14;;;;;;;17.67;11.37;;;10.90;1.00;;;;;;5051309;28;20530;-83
2023/02/16 10:21:47;;;;;;;22.90;13.03;;;11.00;1.00;;;;;;5045103;28;20472;-81
2023/02/16 10:24:14;;;;;;;18.53;12.50;;;10.90;1.00;;;;;;5036486;28;20474;-84
2023/02/16 10:26:46;;;;;;;15.10;11.20;;;10.90;1.00;;;;;;5036570;28;20492;-84
2023/02/16 10:29:15;;;;;;;19.90;12.97;;;11.00;1.00;;;;;;5036573;28;20516;-84
2023/02/16 10:31:50;;;;;;;16.10;12.47;;;11.00;1.00;;;;;;5036870;28;20475;-82
2023/02/16 10:34:20;;;;;;;18.33;12.80;;;11.00;1.00;;;;;;5035599;28;20534;-84
2023/02/16 10:37:08;;;;;;;17.50;11.37;;;11.00;1.00;;;;;;5034126;28;20469;-85
2023/02/16 10:39:41;;;;;;;17.90;12.03;;;10.80;1.00;;;;;;5036785;28;20917;-84
2023/02/16 10:42:17;;;;;;;21.40;13.10;;;10.80;1.00;;;;;;5035502;28;20473;-84
2023/02/16 10:44:48;;;;;;;19.00;14.13;;;10.80;1.00;;;;;;5035763;28;20503;-85
2023/02/16 10:47:28;;;;;;;17.83;12.70;;;10.80;1.00;;;;;;5035038;28;20538;-85
2023/02/16 10:49:56;;;;;;;21.40;14.60;;;10.80;1.00;;;;;;5036285;28;20483;-84
2023/02/16 10:52:24;;;;;;;19.60;13.40;;;10.60;1.00;;;;;;5036658;28;20570;-85
2023/02/16 10:54:51;;;;;;;17.73;11.77;;;10.70;1.00;;;;;;5035961;28;20460;-84
2023/02/16 10:57:26;;;;;;;19.83;12.40;;;10.80;1.00;;;;;;5036937;28;20606;-85
2023/02/16 10:59:55;;;;;;;18.50;13.10;;;10.80;8.90;;;;;;5040541;28;21010;-85
2023/02/16 11:02:27;;;;;;;16.80;13.50;;;10.80;26.90;;;;;;5048229;28;20468;-85
2023/02/16 11:04:56;;;;;;;21.47;14.07;;;11.10;30.30;;;;;;5040086;28;20470;-84
2023/02/16 11:07:24;;;;;;;19.87;13.27;;;10.90;17.00;;;;;;5039363;28;20857;-83
2023/02/16 11:09:54;;;;;;;21.10;15.80;;;11.20;26.20;;;;;;5040481;28;20469;-85
2023/02/16 11:12:29;;;;;;;22.20;13.47;;;11.20;29.60;;;;;;5051910;28;20460;-84
2023/02/16 11:15:02;;;;;;;20.37;14.57;;;11.70;3.20;;;;;;5041456;28;20491;-84
2023/02/16 11:17:31;;;;;;;26.17;15.17;;;11.70;1.00;;;;;;5041477;28;20863;-85
2023/02/16 11:20:04;;;;;;;17.93;13.37;;;11.80;1.00;;;;;;5044146;28;20968;-84
2023/02/16 11:22:33;;;;;;;21.70;15.27;;;12.00;1.00;;;;;;5046343;28;20945;-85
2023/02/16 11:25:20;;;;;;;15.77;13.33;;;12.00;1.00;;;;;;5040284;28;20459;-84
2023/02/16 11:27:53;;;;;;;17.10;13.43;;;13.20;1.00;;;;;;5040898;28;20467;-83
2023/02/16 11:30:28;;;;;;;19.93;14.33;;;14.50;1.00;;;;;;5039970;28;20551;-82
2023/02/16 11:32:57;;;;;;;18.47;14.27;;;14.90;1.00;;;;;;5039168;28;20476;-83
2023/02/16 11:35:24;;;;;;;20.93;15.27;;;15.50;1.00;;;;;;5042290;28;20900;-82
2023/02/16 11:37:51;;;;;;;25.97;14.10;;;15.30;1.00;;;;;;5044297;28;20543;-84
2023/02/16 11:40:22;;;;;;;18.27;13.03;;;14.90;1.00;;;;;;5035586;28;20539;-83
2023/02/16 11:42:51;;;;;;;17.53;13.97;;;14.20;1.00;;;;;;5038002;28;20459;-82
2023/02/16 11:45:27;;;;;;;20.30;13.70;;;13.80;1.00;;;;;;5036896;28;20586;-85
2023/02/16 11:47:58;;;;;;;18.03;13.90;;;13.60;1.00;;;;;;5036865;28;20663;-81
2023/02/16 11:50:28;;;;;;;25.23;14.50;;;13.30;1.00;;;;;;5034248;28;20476;-82
2023/02/16 11:52:57;;;;;;;22.60;14.77;;;12.80;1.00;;;;;;5034598;28;20470;-82
2023/02/16 11:55:31;;;;;;;25.37;15.17;;;12.60;1.00;;;;;;5035488;28;20549;-82
2023/02/16 11:58:15;;;;;;;25.77;16.77;;;12.00;1.00;;;;;;5036620;28;20480;-82
2023/02/16 12:00:48;;;;;;;22.70;14.83;;;11.70;1.00;;;;;;5035105;28;20499;-81
2023/02/16 12:03:33;;;;;;;24.80;15.03;;;11.40;99.90;;;;;;5036448;28;20563;-82
2023/02/16 12:06:11;;;;;;;20.23;14.83;;;11.20;1.00;;;;;;5050352;22;20585;-85
2023/02/16 12:08:51;;;;;;;22.87;15.57;;;11.10;99.90;;;;;;5040975;28;20471;-85
2023/02/16 12:11:30;;;;;;;28.10;15.20;;;10.90;99.90;;;;;;5044378;28;20484;-87
2023/02/16 12:14:07;;;;;;;21.97;15.50;;;10.90;99.90;;;;;;5041636;28;20472;-85
2023/02/16 12:16:42;;;;;;;23.27;16.97;;;10.70;1.00;;;;;;5019996;28;20446;-85
2023/02/16 12:19:24;;;;;;;22.03;16.03;;;10.60;15.80;;;;;;5018805;28;20476;-85
2023/02/16 12:21:56;;;;;;;20.97;14.87;;;10.30;1.00;;;;;;5021758;28;20467;-87
2023/02/16 12:24:40;;;;;;;29.00;14.73;;;10.20;1.00;;;;;;5024025;28;20460;-84
2023/02/16 12:27:16;;;;;;;24.77;17.57;;;10.20;99.90;;;;;;5023574;28;20556;-86
2023/02/16 12:29:52;;;;;;;28.50;16.23;;;10.30;65.10;;;;;;5022896;28;20459;-85
2023/02/16 12:32:41;;;;;;;21.40;14.83;;;10.20;99.90;;;;;;5019032;28;20475;-84
2023/02/16 12:35:23;;;;;;;24.13;15.40;;;10.20;66.20;;;;;;5018345;28;20489;-84
2023/02/16 12:38:03;;;;;;;21.40;15.43;;;10.20;40.40;;;;;;5021527;28;20476;-84
2023/02/16 12:40:53;;;;;;;22.90;14.60;;;10.10;1.00;;;;;;5025334;28;20444;-83
2023/02/16 12:43:33;;;;;;;25.27;16.20;;;10.20;1.00;;;;;;5023905;28;20470;-83
2023/02/16 12:46:05;;;;;;;23.63;15.10;;;10.30;1.00;;;;;;5029635;28;20491;-85
2023/02/16 12:48:41;;;;;;;22.77;15.83;;;10.50;99.90;;;;;;5025235;28;20454;-85
2023/02/16 12:51:14;;;;;;;21.23;14.97;;;10.90;1.00;;;;;;5023949;28;20452;-87
2023/02/16 12:53:46;;;;;;;22.57;15.83;;;11.00;1.00;;;;;;5021349;28;20547;-87
2023/02/16 12:56:20;;;;;;;22.10;14.00;;;11.10;1.00;;;;;;5022161;28;20479;-87
2023/02/16 12:58:54;;;;;;;20.90;14.43;;;11.20;99.90;;;;;;5024322;28;20549;-87
2023/02/16 13:01:25;;;;;;;27.30;17.30;;;11.40;1.00;;;;;;5019796;28;20483;-87
2023/02/16 13:03:57;;;;;;;24.43;15.87;;;11.40;1.00;;;;;;5019230;28;20462;-86
2023/02/16 13:06:32;;;;;;;19.03;15.10;;;11.60;1.00;;;;;;5023238;28;20998;-86
2023/02/16 13:09:10;;;;;;;19.03;14.53;;;11.80;1.00;;;;;;5022695;28;20484;-86
2023/02/16 13:11:43;;;;;;;24.03;16.60;;;12.00;1.00;;;;;;5023487;28;20468;-87
2023/02/16 13:14:16;;;;;;;23.37;16.40;;;11.90;50.50;;;;;;5022944;28;20473;-85
2023/02/16 13:16:48;;;;;;;28.10;15.40;;;12.00;1.00;;;;;;5023815;28;20445;-84
2023/02/16 13:19:15;;;;;;;23.53;16.10;;;11.80;50.60;;;;;;5032455;28;20448;-86
2023/02/16 13:22:24;;;;;;;21.20;14.00;;;12.00;1.00;;;;;;5025057;28;20454;-85
2023/02/16 13:25:04;;;;;;;22.53;16.03;;;12.00;31.90;;;;;;4988838;28;20507;-86
2023/02/16 13:27:41;;;;;;;22.63;16.00;;;11.80;1.00;;;;;;5020682;28;20548;-84
2023/02/16 13:30:34;;;;;;;23.70;16.03;;;12.00;99.90;;;;;;5020065;28;20446;-83
2023/02/16 13:33:17;;;;;;;25.73;14.93;;;12.10;1.00;;;;;;5016123;28;20553;-84
2023/02/16 13:36:10;;;;;;;24.27;16.10;;;11.90;1.00;;;;;;5027859;28;20487;-84
2023/02/16 13:39:12;;;;;;;19.80;14.53;;;11.80;99.90;;;;;;5012867;28;20901;-83
2023/02/16 13:42:00;;;;;;;27.80;18.13;;;11.70;1.00;;;;;;5012028;28;20464;-84